createdAt,value
2019-03-08T00:00:40.441Z,1.13
2019-03-08T00:03:28.526Z,2.03
2019-03-08T00:06:16.529Z,1.30
2019-03-08T00:09:06.350Z,1.40
2019-03-08T00:11:54.514Z,1.20
2019-03-08T00:14:42.505Z,0.90
2019-03-08T00:17:30.510Z,0.87
2019-03-08T00:20:18.591Z,1.80
2019-03-08T00:23:06.974Z,1.47
2019-03-08T00:25:54.977Z,1.80
2019-03-08T00:28:42.991Z,1.30
2019-03-08T00:31:31.497Z,1.20
2019-03-08T00:34:19.498Z,0.97
2019-03-08T00:37:09.089Z,0.90
2019-03-08T00:39:49.780Z,1.27
2019-03-08T00:42:30.522Z,2.10
2019-03-08T00:45:11.751Z,1.07
2019-03-08T00:47:52.122Z,1.60
2019-03-08T00:50:32.654Z,1.60
2019-03-08T00:53:13.158Z,1.30
2019-03-08T00:55:53.814Z,1.20
2019-03-08T00:58:34.402Z,0.93
2019-03-08T01:01:15.161Z,1.60
2019-03-08T01:03:55.846Z,1.20
2019-03-08T01:06:36.750Z,1.07
2019-03-08T01:09:17.819Z,1.40
2019-03-08T01:11:59.126Z,1.00
2019-03-08T01:14:40.198Z,1.20
2019-03-08T01:17:20.741Z,1.57
2019-03-08T01:20:01.518Z,1.53
2019-03-08T01:22:42.630Z,1.20
2019-03-08T01:25:23.189Z,1.07
2019-03-08T01:28:03.841Z,1.00
2019-03-08T01:30:44.442Z,0.80
2019-03-08T01:33:25.171Z,1.57
2019-03-08T01:36:05.933Z,1.10
2019-03-08T01:38:46.715Z,1.27
2019-03-08T01:41:27.150Z,1.30
2019-03-08T01:44:07.964Z,1.13
2019-03-08T01:46:48.659Z,1.00
2019-03-08T01:49:29.676Z,1.00
2019-03-08T01:52:10.134Z,0.80
2019-03-08T01:54:51.165Z,1.20
2019-03-08T01:57:31.803Z,1.27
2019-03-08T02:00:12.859Z,1.00
2019-03-08T02:02:54.231Z,1.30
2019-03-08T02:05:35.115Z,1.30
2019-03-08T02:08:15.901Z,1.50
2019-03-08T02:10:56.510Z,1.47
2019-03-08T02:13:37.003Z,1.10
2019-03-08T02:16:17.880Z,1.10
2019-03-08T02:18:58.537Z,1.10
2019-03-08T02:21:39.421Z,1.53
2019-03-08T02:24:20.163Z,1.70
2019-03-08T02:27:00.768Z,1.40
2019-03-08T02:29:41.567Z,1.07
2019-03-08T02:32:22.192Z,2.00
2019-03-08T02:35:03.046Z,0.90
2019-03-08T02:37:43.526Z,1.00
2019-03-08T02:40:24.050Z,2.00
2019-03-08T02:43:04.930Z,1.13
2019-03-08T02:45:45.537Z,1.47
2019-03-08T02:48:25.969Z,1.10
2019-03-08T02:51:06.490Z,1.47
2019-03-08T02:53:47.251Z,1.33
2019-03-08T02:56:27.940Z,1.40
2019-03-08T02:59:09.443Z,1.37
2019-03-08T03:01:50.140Z,1.23
2019-03-08T03:04:30.922Z,1.23
2019-03-08T03:07:11.595Z,1.27
2019-03-08T03:09:52.494Z,1.30
2019-03-08T03:12:33.016Z,1.00
2019-03-08T03:15:13.589Z,1.37
2019-03-08T03:17:54.631Z,1.43
2019-03-08T03:20:35.787Z,1.10
2019-03-08T03:23:17.102Z,1.37
2019-03-08T03:25:57.806Z,1.83
2019-03-08T03:28:38.522Z,1.60
2019-03-08T03:31:19.133Z,1.20
2019-03-08T03:33:59.802Z,1.60
2019-03-08T03:36:40.421Z,1.10
2019-03-08T03:39:21.246Z,1.30
2019-03-08T03:42:02.284Z,1.37
2019-03-08T03:44:42.678Z,1.03
2019-03-08T03:47:23.336Z,0.80
2019-03-08T03:50:04.172Z,1.10
2019-03-08T03:52:45.109Z,1.07
2019-03-08T03:55:25.833Z,1.20
2019-03-08T03:58:06.436Z,1.40
2019-03-08T04:00:47.250Z,1.27
2019-03-08T04:03:28.262Z,1.20
2019-03-08T04:06:09.792Z,1.37
2019-03-08T04:08:50.758Z,1.13
2019-03-08T04:11:31.287Z,1.20
2019-03-08T04:14:11.924Z,1.57
2019-03-08T04:16:53.156Z,1.10
2019-03-08T04:19:33.819Z,1.30
2019-03-08T04:22:14.282Z,1.30
2019-03-08T04:24:54.999Z,1.67
2019-03-08T04:27:35.754Z,2.23
2019-03-08T04:30:16.550Z,1.70
2019-03-08T04:32:57.194Z,1.00
2019-03-08T04:35:38.024Z,1.70
2019-03-08T04:38:18.647Z,1.30
2019-03-08T04:40:59.446Z,1.50
2019-03-08T04:43:40.254Z,1.10
2019-03-08T04:46:21.104Z,1.00
2019-03-08T04:49:01.703Z,0.97
2019-03-08T04:51:42.652Z,1.87
2019-03-08T04:54:23.807Z,1.03
2019-03-08T04:57:05.130Z,1.03
2019-03-08T04:59:46.277Z,1.20
2019-03-08T05:02:26.963Z,1.30
2019-03-08T05:05:07.674Z,1.43
2019-03-08T05:07:48.346Z,1.10
2019-03-08T05:10:29.019Z,1.40
2019-03-08T05:13:09.582Z,1.10
2019-03-08T05:15:50.210Z,1.13
2019-03-08T05:18:30.633Z,1.27
2019-03-08T05:21:11.395Z,1.43
2019-03-08T05:23:52.148Z,1.10
2019-03-08T05:26:33.138Z,1.13
2019-03-08T05:29:13.851Z,1.10
2019-03-08T05:31:54.466Z,1.30
2019-03-08T05:34:35.299Z,1.23
2019-03-08T05:37:15.893Z,1.30
2019-03-08T05:39:56.652Z,1.40
2019-03-08T05:42:38.258Z,1.30
2019-03-08T05:45:19.240Z,1.67
2019-03-08T05:48:00.550Z,1.80
2019-03-08T05:50:41.238Z,2.07
2019-03-08T05:53:21.643Z,2.20
2019-03-08T05:56:02.230Z,1.97
2019-03-08T05:58:43.316Z,2.50
2019-03-08T06:01:23.788Z,2.20
2019-03-08T06:04:04.500Z,2.50
2019-03-08T06:06:45.120Z,2.70
2019-03-08T06:09:26.120Z,2.90
2019-03-08T06:12:06.854Z,3.13
2019-03-08T06:14:47.792Z,3.73
2019-03-08T06:17:28.559Z,3.03
2019-03-08T06:20:09.359Z,2.90
2019-03-08T06:22:49.979Z,2.43
2019-03-08T06:25:30.872Z,3.10
2019-03-08T06:28:11.505Z,3.50
2019-03-08T06:30:52.111Z,3.60
2019-03-08T06:33:32.704Z,3.67
2019-03-08T06:36:13.440Z,3.30
2019-03-08T06:38:54.710Z,2.77
2019-03-08T06:44:48.005Z,2.90
2019-03-08T06:47:28.703Z,3.60
2019-03-08T06:50:09.509Z,3.30
2019-03-08T06:52:51.120Z,3.33
2019-03-08T06:55:32.319Z,3.40
2019-03-08T06:58:14.387Z,3.53
2019-03-08T07:01:14.427Z,3.40
2019-03-08T07:03:54.955Z,3.37
2019-03-08T07:06:35.928Z,4.00
2019-03-08T07:09:16.795Z,3.33
2019-03-08T07:11:57.641Z,3.73
2019-03-08T07:14:38.759Z,3.80
2019-03-08T07:17:20.568Z,3.87
2019-03-08T07:23:33.406Z,4.07
2019-03-08T07:26:23.103Z,3.67
2019-03-08T07:29:14.466Z,4.27
2019-03-08T07:32:14.807Z,4.50
2019-03-08T07:35:15.250Z,5.17
2019-03-08T07:38:20.892Z,5.47
2019-03-08T07:41:12.915Z,6.20
2019-03-08T07:44:13.471Z,5.67
2019-03-08T07:47:01.558Z,5.77
2019-03-08T07:50:01.484Z,5.67
2019-03-08T07:53:01.975Z,6.00
2019-03-08T07:56:01.885Z,6.20
2019-03-08T07:58:52.557Z,6.37
2019-03-08T08:01:40.802Z,5.40
2019-03-08T08:04:41.195Z,7.00
2019-03-08T08:07:46.997Z,8.27
2019-03-08T08:10:47.239Z,5.60
2019-03-08T08:13:45.101Z,6.03
2019-03-08T08:16:48.337Z,5.47
2019-03-08T08:19:49.771Z,5.23
2019-03-08T08:22:41.357Z,7.03
2019-03-08T08:25:36.792Z,5.93
2019-03-08T08:28:24.295Z,7.63
2019-03-08T08:31:24.355Z,7.20
2019-03-08T08:34:14.976Z,6.47
2019-03-08T08:37:15.068Z,6.23
2019-03-08T08:40:06.578Z,5.30
2019-03-08T08:43:06.057Z,6.27
2019-03-08T08:46:06.304Z,5.43
2019-03-08T08:49:06.673Z,5.80
2019-03-08T08:52:12.673Z,6.20
2019-03-08T08:55:13.971Z,6.60
2019-03-08T08:58:07.963Z,6.13
2019-03-08T09:01:07.435Z,4.97
2019-03-08T09:04:04.715Z,5.30
2019-03-08T09:07:04.295Z,6.40
2019-03-08T09:10:04.829Z,4.60
2019-03-08T09:12:57.491Z,4.37
2019-03-08T09:19:05.942Z,4.77
2019-03-08T09:22:06.478Z,4.40
2019-03-08T09:25:06.387Z,5.13
2019-03-08T09:27:53.549Z,3.77
2019-03-08T09:30:53.639Z,2.90
2019-03-08T09:33:44.145Z,2.83
2019-03-08T09:36:44.168Z,2.97
2019-03-08T09:39:44.296Z,2.90
2019-03-08T09:42:46.576Z,2.80
2019-03-08T09:45:52.509Z,2.90
2019-03-08T09:48:48.654Z,1.90
2019-03-08T09:51:31.983Z,2.77
2019-03-08T09:54:18.319Z,2.73
2019-03-08T09:57:18.357Z,2.87
2019-03-08T10:00:19.888Z,2.60
2019-03-08T10:03:20.489Z,3.70
2019-03-08T10:06:09.668Z,2.60
2019-03-08T10:08:59.858Z,3.73
2019-03-08T10:12:03.360Z,2.07
2019-03-08T10:14:58.871Z,2.20
2019-03-08T10:17:58.674Z,2.00
2019-03-08T10:20:59.231Z,1.73
2019-03-08T10:23:59.262Z,2.70
2019-03-08T10:26:44.394Z,2.30
2019-03-08T10:29:41.255Z,2.73
2019-03-08T10:32:48.334Z,2.07
2019-03-08T10:35:55.697Z,2.93
2019-03-08T10:39:02.859Z,2.57
2019-03-08T10:42:10.262Z,2.70
2019-03-08T10:45:17.343Z,3.70
2019-03-08T10:48:22.667Z,3.23
2019-03-08T10:51:29.755Z,2.87
2019-03-08T10:54:36.862Z,3.37
2019-03-08T10:57:43.994Z,3.30
2019-03-08T11:00:51.341Z,2.70
2019-03-08T11:03:58.412Z,3.80
2019-03-08T11:07:05.563Z,3.37
2019-03-08T11:10:01.316Z,2.00
2019-03-08T11:13:08.405Z,3.47
2019-03-08T11:16:15.814Z,3.87
2019-03-08T11:19:23.277Z,2.83
2019-03-08T11:22:30.443Z,3.17
2019-03-08T11:25:37.571Z,3.83
2019-03-08T11:28:44.657Z,3.10
2019-03-08T11:31:52.003Z,4.10
2019-03-08T11:34:59.146Z,2.93
2019-03-08T11:38:02.871Z,2.87
2019-03-08T11:40:55.459Z,3.40
2019-03-08T11:43:49.295Z,3.80
2019-03-08T11:46:49.222Z,2.60
2019-03-08T11:49:39.077Z,1.83
2019-03-08T11:52:42.704Z,2.30
2019-03-08T11:55:45.017Z,3.17
2019-03-08T11:58:45.510Z,2.60
2019-03-08T12:01:45.679Z,4.50
2019-03-08T12:04:48.732Z,3.07
2019-03-08T12:07:35.214Z,3.57
2019-03-08T12:10:34.855Z,3.00
2019-03-08T12:13:24.683Z,4.33
2019-03-08T12:16:25.133Z,3.00
2019-03-08T12:19:24.293Z,3.80
2019-03-08T12:22:15.970Z,4.03
2019-03-08T12:25:19.218Z,3.17
2019-03-08T12:28:23.005Z,4.20
2019-03-08T12:31:23.329Z,3.90
2019-03-08T12:34:23.755Z,3.27
2019-03-08T12:40:21.137Z,3.33
2019-03-08T12:43:20.859Z,4.30
2019-03-08T12:46:09.392Z,3.20
2019-03-08T12:49:09.268Z,3.90
2019-03-08T12:52:08.998Z,3.43
2019-03-08T12:54:56.334Z,3.50
2019-03-08T12:58:02.246Z,3.23
2019-03-08T13:00:52.702Z,3.90
2019-03-08T13:03:52.490Z,3.83
2019-03-08T13:06:42.813Z,3.13
2019-03-08T13:09:42.704Z,3.80
2019-03-08T13:12:23.799Z,2.63
2019-03-08T13:15:04.881Z,3.20
2019-03-08T13:17:45.699Z,2.63
2019-03-08T13:20:26.614Z,3.60
2019-03-08T13:23:07.299Z,3.80
2019-03-08T13:25:48.391Z,3.23
2019-03-08T13:28:28.915Z,2.80
2019-03-08T13:31:09.600Z,3.13
2019-03-08T13:33:50.495Z,3.07
2019-03-08T13:36:31.757Z,2.87
2019-03-08T13:39:12.239Z,3.07
2019-03-08T13:41:52.839Z,2.77
2019-03-08T13:44:33.643Z,3.20
2019-03-08T13:47:14.486Z,2.30
2019-03-08T13:49:55.321Z,2.93
2019-03-08T13:52:36.222Z,2.83
2019-03-08T13:55:16.839Z,3.60
2019-03-08T13:57:57.596Z,2.73
2019-03-08T14:00:38.265Z,2.13
2019-03-08T14:03:19.086Z,2.87
2019-03-08T14:06:00.283Z,2.60
2019-03-08T14:08:41.048Z,3.23
2019-03-08T14:11:21.538Z,2.30
2019-03-08T14:14:02.636Z,2.67
2019-03-08T14:16:43.167Z,3.50
2019-03-08T14:19:23.632Z,2.43
2019-03-08T14:22:04.662Z,2.47
2019-03-08T14:24:45.731Z,2.10
2019-03-08T14:27:26.495Z,2.60
2019-03-08T14:30:07.114Z,3.03
2019-03-08T14:32:47.618Z,2.53
2019-03-08T14:35:29.782Z,2.03
2019-03-08T14:38:11.303Z,3.03
2019-03-08T14:43:54.772Z,2.87
2019-03-08T14:46:43.015Z,2.97
2019-03-08T14:49:24.626Z,2.93
2019-03-08T14:52:05.091Z,2.23
2019-03-08T14:54:46.462Z,3.00
2019-03-08T14:57:28.254Z,2.90
2019-03-08T15:00:08.963Z,2.30
2019-03-08T15:02:49.564Z,3.03
2019-03-08T15:05:30.229Z,3.17
2019-03-08T15:08:13.634Z,2.60
2019-03-08T15:10:53.789Z,3.30
2019-03-08T15:13:40.433Z,2.53
2019-03-08T15:16:21.156Z,2.23
2019-03-08T15:19:03.697Z,3.53
2019-03-08T15:21:48.271Z,2.80
2019-03-08T15:24:27.280Z,3.13
2019-03-08T15:27:08.289Z,2.70
2019-03-08T15:29:54.406Z,3.67
2019-03-08T15:32:35.088Z,3.83
2019-03-08T15:35:16.081Z,3.50
2019-03-08T15:37:56.909Z,4.07
2019-03-08T15:40:37.707Z,3.63
2019-03-08T15:43:18.420Z,2.27
2019-03-08T15:45:59.270Z,2.37
2019-03-08T15:48:40.017Z,3.17
2019-03-08T15:51:24.714Z,2.40
2019-03-08T15:54:03.279Z,2.77
2019-03-08T15:56:43.967Z,3.97
2019-03-08T15:59:25.015Z,3.50
2019-03-08T16:02:06.331Z,2.93
2019-03-08T16:04:50.152Z,3.47
2019-03-08T16:07:31.315Z,2.83
2019-03-08T16:10:12.080Z,3.30
2019-03-08T16:12:52.819Z,3.23
2019-03-08T16:15:33.482Z,3.70
2019-03-08T16:18:14.358Z,4.17
2019-03-08T16:20:55.172Z,2.70
2019-03-08T16:23:36.109Z,2.50
2019-03-08T16:26:16.838Z,3.23
2019-03-08T16:28:57.633Z,3.00
2019-03-08T16:31:59.830Z,2.77
2019-03-08T16:34:39.952Z,2.77
2019-03-08T16:37:25.418Z,2.27
2019-03-08T16:40:25.509Z,3.70
2019-03-08T16:46:31.198Z,3.33
2019-03-08T16:49:22.024Z,3.10
2019-03-08T16:52:23.310Z,3.20
2019-03-08T16:55:22.855Z,3.60
2019-03-08T16:58:22.502Z,3.80
2019-03-08T17:01:22.129Z,3.60
2019-03-08T17:04:13.983Z,4.53
2019-03-08T17:07:02.711Z,2.63
2019-03-08T17:10:02.780Z,2.17
2019-03-08T17:13:02.767Z,2.53
2019-03-08T17:16:02.293Z,2.43
2019-03-08T17:19:11.938Z,4.07
2019-03-08T17:22:02.328Z,2.43
2019-03-08T17:25:01.867Z,3.27
2019-03-08T17:28:01.252Z,3.87
2019-03-08T17:30:50.919Z,2.70
2019-03-08T17:33:51.626Z,2.83
2019-03-08T17:36:40.115Z,2.87
2019-03-08T17:39:39.631Z,2.30
2019-03-08T17:42:40.397Z,2.80
2019-03-08T17:45:40.577Z,2.50
2019-03-08T17:48:40.892Z,2.33
2019-03-08T17:51:41.398Z,2.77
2019-03-08T17:54:44.616Z,2.93
2019-03-08T17:57:44.119Z,2.30
2019-03-08T18:00:33.008Z,2.60
2019-03-08T18:03:20.117Z,3.60
2019-03-08T18:06:20.293Z,2.90
2019-03-08T18:09:20.530Z,2.70
2019-03-08T18:12:09.695Z,2.53
2019-03-08T18:15:09.213Z,2.80
2019-03-08T18:18:08.739Z,2.50
2019-03-08T18:21:15.268Z,3.43
2019-03-08T18:24:23.370Z,3.87
2019-03-08T18:27:06.156Z,4.73
2019-03-08T18:30:06.393Z,4.47
2019-03-08T18:32:59.128Z,4.17
2019-03-08T18:35:50.961Z,3.37
2019-03-08T18:38:50.551Z,5.43
2019-03-08T18:41:48.060Z,5.80
2019-03-08T18:44:44.295Z,5.50
2019-03-08T18:47:46.971Z,7.97
2019-03-08T18:50:47.086Z,6.47
2019-03-08T18:53:47.232Z,7.53
2019-03-08T18:56:38.224Z,6.97
2019-03-08T18:59:26.580Z,7.00
2019-03-08T19:02:26.960Z,6.83
2019-03-08T19:05:26.459Z,6.67
2019-03-08T19:08:26.278Z,7.60
2019-03-08T19:11:26.417Z,6.80
2019-03-08T19:17:38.790Z,6.93
2019-03-08T19:20:38.484Z,6.70
2019-03-08T19:23:38.749Z,6.80
2019-03-08T19:26:36.100Z,6.33
2019-03-08T19:29:24.632Z,6.13
2019-03-08T19:32:11.626Z,6.10
2019-03-08T19:35:02.525Z,6.50
2019-03-08T19:38:05.333Z,6.30
2019-03-08T19:41:05.500Z,5.40
2019-03-08T19:43:59.036Z,5.30
2019-03-08T19:46:59.378Z,4.40
2019-03-08T19:49:58.918Z,4.93
2019-03-08T19:52:58.924Z,5.47
2019-03-08T19:55:59.203Z,4.40
2019-03-08T19:58:58.713Z,4.23
2019-03-08T20:01:48.244Z,4.60
2019-03-08T20:04:48.589Z,5.40
2019-03-08T20:07:48.890Z,4.43
2019-03-08T20:10:43.076Z,4.43
2019-03-08T20:13:35.184Z,4.70
2019-03-08T20:16:39.924Z,5.43
2019-03-08T20:19:27.072Z,5.73
2019-03-08T20:22:18.155Z,5.80
2019-03-08T20:25:09.468Z,4.80
2019-03-08T20:27:59.565Z,5.20
2019-03-08T20:30:54.264Z,5.67
2019-03-08T20:33:54.568Z,6.20
2019-03-08T20:36:54.283Z,4.93
2019-03-08T20:39:47.097Z,5.87
2019-03-08T20:42:40.494Z,4.97
2019-03-08T20:45:40.545Z,5.40
2019-03-08T20:48:21.083Z,5.13
2019-03-08T20:51:01.922Z,4.60
2019-03-08T20:53:42.686Z,4.83
2019-03-08T20:56:23.844Z,4.40
2019-03-08T20:59:04.290Z,4.57
2019-03-08T21:01:45.152Z,4.87
2019-03-08T21:04:25.713Z,4.83
2019-03-08T21:07:06.492Z,5.50
2019-03-08T21:09:47.207Z,3.70
2019-03-08T21:12:28.035Z,6.17
2019-03-08T21:15:08.691Z,3.97
2019-03-08T21:17:49.596Z,4.23
2019-03-08T21:20:30.381Z,3.87
2019-03-08T21:23:11.828Z,4.33
2019-03-08T21:25:52.257Z,3.60
2019-03-08T21:28:33.257Z,3.80
2019-03-08T21:31:14.139Z,4.40
2019-03-08T21:33:55.261Z,4.20
2019-03-08T21:36:35.852Z,4.03
2019-03-08T21:39:16.509Z,3.83
2019-03-08T21:41:57.405Z,4.00
2019-03-08T21:44:38.102Z,3.57
2019-03-08T21:47:18.476Z,4.13
2019-03-08T21:49:58.930Z,3.90
2019-03-08T21:52:40.425Z,3.60
2019-03-08T21:55:21.053Z,3.27
2019-03-08T21:58:01.807Z,3.40
2019-03-08T22:00:42.456Z,3.87
2019-03-08T22:03:22.832Z,3.70
2019-03-08T22:06:03.428Z,3.77
2019-03-08T22:11:45.682Z,3.80
2019-03-08T22:14:26.970Z,3.60
2019-03-08T22:17:07.675Z,4.87
2019-03-08T22:19:56.408Z,4.13
2019-03-08T22:22:44.748Z,4.13
2019-03-08T22:28:26.017Z,4.40
2019-03-08T22:31:14.297Z,3.87
2019-03-08T22:33:43.443Z,4.83
2019-03-08T22:36:31.450Z,4.37
2019-03-08T22:39:21.200Z,3.77
2019-03-08T22:42:09.199Z,3.37
2019-03-08T22:44:57.211Z,3.73
2019-03-08T22:47:45.220Z,5.33
2019-03-08T22:50:33.579Z,3.93
2019-03-08T22:53:21.660Z,4.10
2019-03-08T22:56:09.934Z,4.70
2019-03-08T22:58:57.941Z,4.40
2019-03-08T23:01:48.694Z,4.60
2019-03-08T23:04:37.115Z,4.07
2019-03-08T23:07:25.427Z,4.27
2019-03-08T23:10:13.587Z,4.10
2019-03-08T23:13:01.589Z,3.57
2019-03-08T23:15:49.599Z,3.60
2019-03-08T23:18:37.613Z,4.60
2019-03-08T23:21:25.941Z,5.67
2019-03-08T23:24:13.960Z,4.30
2019-03-08T23:27:21.050Z,4.67
2019-03-08T23:30:28.257Z,3.80
2019-03-08T23:33:16.259Z,5.30
2019-03-08T23:36:04.282Z,4.40
2019-03-08T23:38:52.281Z,4.33
2019-03-08T23:41:35.366Z,5.00
2019-03-08T23:44:16.172Z,4.20
2019-03-08T23:46:57.076Z,5.03
2019-03-08T23:49:37.873Z,4.23
2019-03-08T23:52:18.708Z,4.90
2019-03-08T23:54:59.457Z,4.47
2019-03-08T23:57:39.965Z,4.50
